sensor_id;sensor_type;location;lat;lon;timestamp;P1;durP1;ratioP1;P2;durP2;ratioP2
2061;SDS011;11070;51.336;12.340;2023-04-25T00:02:20;11.27;;;8.30;;
2061;SDS011;11070;51.336;12.340;2023-04-25T00:04:47;8.75;;;7.00;;
2061;SDS011;11070;51.336;12.340;2023-04-25T00:07:14;10.20;;;7.40;;
2061;SDS011;11070;51.336;12.340;2023-04-25T00:09:41;9.18;;;7.53;;
2061;SDS011;11070;51.336;12.340;2023-04-25T00:12:07;10.35;;;8.25;;
2061;SDS011;11070;51.336;12.340;2023-04-25T00:14:32;10.90;;;8.73;;
2061;SDS011;11070;51.336;12.340;2023-04-25T00:16:59;12.15;;;8.38;;
2061;SDS011;11070;51.336;12.340;2023-04-25T00:19:25;10.00;;;8.70;;
2061;SDS011;11070;51.336;12.340;2023-04-25T00:21:53;11.60;;;8.90;;
2061;SDS011;11070;51.336;12.340;2023-04-25T00:24:22;12.68;;;8.60;;
2061;SDS011;11070;51.336;12.340;2023-04-25T00:26:48;12.13;;;9.13;;
2061;SDS011;11070;51.336;12.340;2023-04-25T00:29:13;13.90;;;9.73;;
2061;SDS011;11070;51.336;12.340;2023-04-25T00:31:40;11.02;;;9.07;;
2061;SDS011;11070;51.336;12.340;2023-04-25T00:34:06;11.67;;;9.10;;
2061;SDS011;11070;51.336;12.340;2023-04-25T00:36:33;13.00;;;9.60;;
2061;SDS011;11070;51.336;12.340;2023-04-25T00:38:58;11.10;;;9.40;;
2061;SDS011;11070;51.336;12.340;2023-04-25T00:41:25;11.60;;;9.03;;
2061;SDS011;11070;51.336;12.340;2023-04-25T00:43:51;14.38;;;9.18;;
2061;SDS011;11070;51.336;12.340;2023-04-25T00:46:18;15.85;;;10.05;;
2061;SDS011;11070;51.336;12.340;2023-04-25T00:48:44;10.00;;;9.00;;
2061;SDS011;11070;51.336;12.340;2023-04-25T00:51:10;11.83;;;9.33;;
2061;SDS011;11070;51.336;12.340;2023-04-25T00:53:41;12.52;;;9.73;;
2061;SDS011;11070;51.336;12.340;2023-04-25T00:56:07;11.10;;;8.70;;
2061;SDS011;11070;51.336;12.340;2023-04-25T00:58:32;11.80;;;9.60;;
2061;SDS011;11070;51.336;12.340;2023-04-25T01:00:58;14.80;;;10.40;;
2061;SDS011;11070;51.336;12.340;2023-04-25T01:03:25;15.55;;;10.30;;
2061;SDS011;11070;51.336;12.340;2023-04-25T01:05:53;14.38;;;10.02;;
2061;SDS011;11070;51.336;12.340;2023-04-25T01:08:21;14.80;;;10.18;;
2061;SDS011;11070;51.336;12.340;2023-04-25T01:10:52;12.45;;;9.70;;
2061;SDS011;11070;51.336;12.340;2023-04-25T01:13:18;11.60;;;9.90;;
2061;SDS011;11070;51.336;12.340;2023-04-25T01:15:44;12.80;;;9.73;;
2061;SDS011;11070;51.336;12.340;2023-04-25T01:18:09;10.47;;;9.33;;
2061;SDS011;11070;51.336;12.340;2023-04-25T01:20:35;13.00;;;9.68;;
2061;SDS011;11070;51.336;12.340;2023-04-25T01:23:03;11.77;;;9.50;;
2061;SDS011;11070;51.336;12.340;2023-04-25T01:25:32;11.70;;;10.30;;
2061;SDS011;11070;51.336;12.340;2023-04-25T01:27:58;14.15;;;10.20;;
2061;SDS011;11070;51.336;12.340;2023-04-25T01:30:25;11.70;;;8.77;;
2061;SDS011;11070;51.336;12.340;2023-04-25T01:32:52;11.82;;;8.88;;
2061;SDS011;11070;51.336;12.340;2023-04-25T01:35:20;12.57;;;9.23;;
2061;SDS011;11070;51.336;12.340;2023-04-25T01:37:48;11.35;;;9.23;;
2061;SDS011;11070;51.336;12.340;2023-04-25T01:40:14;10.48;;;9.10;;
2061;SDS011;11070;51.336;12.340;2023-04-25T01:42:41;13.00;;;10.03;;
2061;SDS011;11070;51.336;12.340;2023-04-25T01:45:08;13.05;;;8.60;;
2061;SDS011;11070;51.336;12.340;2023-04-25T01:47:35;13.50;;;9.25;;
2061;SDS011;11070;51.336;12.340;2023-04-25T01:50:02;11.52;;;8.95;;
2061;SDS011;11070;51.336;12.340;2023-04-25T01:52:29;12.43;;;9.02;;
2061;SDS011;11070;51.336;12.340;2023-04-25T01:54:56;18.50;;;10.50;;
2061;SDS011;11070;51.336;12.340;2023-04-25T01:57:22;15.40;;;9.20;;
2061;SDS011;11070;51.336;12.340;2023-04-25T01:59:48;10.30;;;8.83;;
2061;SDS011;11070;51.336;12.340;2023-04-25T02:02:14;9.48;;;8.15;;
2061;SDS011;11070;51.336;12.340;2023-04-25T02:04:40;12.37;;;8.90;;
2061;SDS011;11070;51.336;12.340;2023-04-25T02:07:06;12.70;;;9.27;;
2061;SDS011;11070;51.336;12.340;2023-04-25T02:09:32;10.53;;;8.50;;
2061;SDS011;11070;51.336;12.340;2023-04-25T02:11:57;14.40;;;9.43;;
2061;SDS011;11070;51.336;12.340;2023-04-25T02:14:23;12.75;;;8.65;;
2061;SDS011;11070;51.336;12.340;2023-04-25T02:16:49;12.90;;;8.30;;
2061;SDS011;11070;51.336;12.340;2023-04-25T02:19:16;11.07;;;8.32;;
2061;SDS011;11070;51.336;12.340;2023-04-25T02:21:42;10.73;;;8.20;;
2061;SDS011;11070;51.336;12.340;2023-04-25T02:24:07;9.57;;;7.80;;
2061;SDS011;11070;51.336;12.340;2023-04-25T02:26:33;13.05;;;8.57;;
2061;SDS011;11070;51.336;12.340;2023-04-25T02:28:59;14.10;;;7.27;;
2061;SDS011;11070;51.336;12.340;2023-04-25T02:31:26;9.45;;;8.23;;
2061;SDS011;11070;51.336;12.340;2023-04-25T02:33:51;10.80;;;8.40;;
2061;SDS011;11070;51.336;12.340;2023-04-25T02:36:17;10.43;;;8.23;;
2061;SDS011;11070;51.336;12.340;2023-04-25T02:38:43;8.63;;;7.23;;
2061;SDS011;11070;51.336;12.340;2023-04-25T02:41:08;14.67;;;8.10;;
2061;SDS011;11070;51.336;12.340;2023-04-25T02:43:34;10.77;;;7.80;;
2061;SDS011;11070;51.336;12.340;2023-04-25T02:46:00;12.37;;;7.33;;
2061;SDS011;11070;51.336;12.340;2023-04-25T02:48:25;10.77;;;8.03;;
2061;SDS011;11070;51.336;12.340;2023-04-25T02:50:51;11.80;;;8.40;;
2061;SDS011;11070;51.336;12.340;2023-04-25T02:53:17;9.80;;;7.90;;
2061;SDS011;11070;51.336;12.340;2023-04-25T02:55:42;15.00;;;7.60;;
2061;SDS011;11070;51.336;12.340;2023-04-25T02:58:08;14.23;;;8.87;;
2061;SDS011;11070;51.336;12.340;2023-04-25T03:00:35;12.57;;;9.02;;
2061;SDS011;11070;51.336;12.340;2023-04-25T03:03:00;15.07;;;9.30;;
2061;SDS011;11070;51.336;12.340;2023-04-25T03:05:26;11.63;;;9.27;;
2061;SDS011;11070;51.336;12.340;2023-04-25T03:07:52;14.17;;;9.13;;
2061;SDS011;11070;51.336;12.340;2023-04-25T03:10:17;14.33;;;9.30;;
2061;SDS011;11070;51.336;12.340;2023-04-25T03:12:43;11.40;;;9.20;;
2061;SDS011;11070;51.336;12.340;2023-04-25T03:15:09;14.40;;;9.43;;
2061;SDS011;11070;51.336;12.340;2023-04-25T03:17:35;12.95;;;8.63;;
2061;SDS011;11070;51.336;12.340;2023-04-25T03:20:00;15.63;;;9.70;;
2061;SDS011;11070;51.336;12.340;2023-04-25T03:22:26;12.73;;;9.37;;
2061;SDS011;11070;51.336;12.340;2023-04-25T03:24:52;12.77;;;9.10;;
2061;SDS011;11070;51.336;12.340;2023-04-25T03:27:17;11.87;;;9.00;;
2061;SDS011;11070;51.336;12.340;2023-04-25T03:29:43;12.07;;;8.50;;
2061;SDS011;11070;51.336;12.340;2023-04-25T03:32:09;15.83;;;9.40;;
2061;SDS011;11070;51.336;12.340;2023-04-25T03:34:34;14.23;;;9.57;;
2061;SDS011;11070;51.336;12.340;2023-04-25T03:37:00;12.70;;;9.27;;
2061;SDS011;11070;51.336;12.340;2023-04-25T03:39:26;14.90;;;9.70;;
2061;SDS011;11070;51.336;12.340;2023-04-25T03:41:51;11.13;;;9.07;;
2061;SDS011;11070;51.336;12.340;2023-04-25T03:44:17;10.47;;;9.10;;
2061;SDS011;11070;51.336;12.340;2023-04-25T03:46:43;14.07;;;9.67;;
2061;SDS011;11070;51.336;12.340;2023-04-25T03:49:08;12.87;;;9.33;;
2061;SDS011;11070;51.336;12.340;2023-04-25T03:51:34;13.07;;;9.30;;
2061;SDS011;11070;51.336;12.340;2023-04-25T03:54:00;12.87;;;9.07;;
2061;SDS011;11070;51.336;12.340;2023-04-25T03:56:26;13.07;;;9.52;;
2061;SDS011;11070;51.336;12.340;2023-04-25T03:58:51;13.77;;;9.10;;
2061;SDS011;11070;51.336;12.340;2023-04-25T04:01:17;12.60;;;8.90;;
2061;SDS011;11070;51.336;12.340;2023-04-25T04:03:42;17.80;;;10.27;;
2061;SDS011;11070;51.336;12.340;2023-04-25T04:06:08;17.90;;;9.60;;
2061;SDS011;11070;51.336;12.340;2023-04-25T04:08:35;16.45;;;10.55;;
2061;SDS011;11070;51.336;12.340;2023-04-25T04:11:01;14.07;;;9.47;;
2061;SDS011;11070;51.336;12.340;2023-04-25T04:13:27;17.23;;;10.73;;
2061;SDS011;11070;51.336;12.340;2023-04-25T04:15:53;20.70;;;11.02;;
2061;SDS011;11070;51.336;12.340;2023-04-25T04:18:19;17.33;;;10.50;;
2061;SDS011;11070;51.336;12.340;2023-04-25T04:20:45;18.47;;;11.63;;
2061;SDS011;11070;51.336;12.340;2023-04-25T04:23:11;17.47;;;11.20;;
2061;SDS011;11070;51.336;12.340;2023-04-25T04:25:37;23.90;;;11.60;;
2061;SDS011;11070;51.336;12.340;2023-04-25T04:28:04;18.67;;;12.05;;
2061;SDS011;11070;51.336;12.340;2023-04-25T04:30:31;21.67;;;13.38;;
2061;SDS011;11070;51.336;12.340;2023-04-25T04:32:58;18.88;;;12.05;;
2061;SDS011;11070;51.336;12.340;2023-04-25T04:35:25;23.20;;;15.02;;
2061;SDS011;11070;51.336;12.340;2023-04-25T04:37:51;15.73;;;11.30;;
2061;SDS011;11070;51.336;12.340;2023-04-25T04:40:18;17.88;;;12.15;;
2061;SDS011;11070;51.336;12.340;2023-04-25T04:42:44;17.10;;;11.63;;
2061;SDS011;11070;51.336;12.340;2023-04-25T04:45:10;16.90;;;11.60;;
2061;SDS011;11070;51.336;12.340;2023-04-25T04:47:37;16.58;;;11.18;;
2061;SDS011;11070;51.336;12.340;2023-04-25T04:50:04;19.65;;;10.57;;
2061;SDS011;11070;51.336;12.340;2023-04-25T04:52:32;18.77;;;10.30;;
2061;SDS011;11070;51.336;12.340;2023-04-25T04:54:57;22.37;;;12.17;;
2061;SDS011;11070;51.336;12.340;2023-04-25T04:57:23;13.57;;;10.30;;
2061;SDS011;11070;51.336;12.340;2023-04-25T04:59:49;17.80;;;11.60;;
2061;SDS011;11070;51.336;12.340;2023-04-25T05:02:15;15.87;;;9.83;;
2061;SDS011;11070;51.336;12.340;2023-04-25T05:04:41;19.90;;;10.50;;
2061;SDS011;11070;51.336;12.340;2023-04-25T05:07:06;16.43;;;11.13;;
2061;SDS011;11070;51.336;12.340;2023-04-25T05:09:32;20.13;;;10.87;;
2061;SDS011;11070;51.336;12.340;2023-04-25T05:11:58;15.43;;;10.63;;
2061;SDS011;11070;51.336;12.340;2023-04-25T05:14:23;18.13;;;10.60;;
2061;SDS011;11070;51.336;12.340;2023-04-25T05:16:49;14.23;;;10.90;;
2061;SDS011;11070;51.336;12.340;2023-04-25T05:19:15;15.52;;;10.55;;
2061;SDS011;11070;51.336;12.340;2023-04-25T05:21:41;15.67;;;10.87;;
2061;SDS011;11070;51.336;12.340;2023-04-25T05:24:08;20.15;;;11.13;;
2061;SDS011;11070;51.336;12.340;2023-04-25T05:26:33;14.20;;;9.87;;
2061;SDS011;11070;51.336;12.340;2023-04-25T05:28:59;17.37;;;10.97;;
2061;SDS011;11070;51.336;12.340;2023-04-25T05:31:25;16.87;;;10.70;;
2061;SDS011;11070;51.336;12.340;2023-04-25T05:33:52;16.17;;;9.63;;
2061;SDS011;11070;51.336;12.340;2023-04-25T05:36:20;14.27;;;10.55;;
2061;SDS011;11070;51.336;12.340;2023-04-25T05:38:46;17.77;;;10.65;;
2061;SDS011;11070;51.336;12.340;2023-04-25T05:41:12;16.47;;;11.60;;
2061;SDS011;11070;51.336;12.340;2023-04-25T05:43:37;16.10;;;9.50;;
2061;SDS011;11070;51.336;12.340;2023-04-25T05:46:03;15.37;;;11.00;;
2061;SDS011;11070;51.336;12.340;2023-04-25T05:48:29;19.23;;;11.43;;
2061;SDS011;11070;51.336;12.340;2023-04-25T05:50:55;14.70;;;10.50;;
2061;SDS011;11070;51.336;12.340;2023-04-25T05:53:20;15.67;;;10.13;;
2061;SDS011;11070;51.336;12.340;2023-04-25T05:55:47;16.00;;;10.75;;
2061;SDS011;11070;51.336;12.340;2023-04-25T05:58:12;19.20;;;11.47;;
2061;SDS011;11070;51.336;12.340;2023-04-25T06:00:38;15.83;;;11.37;;
2061;SDS011;11070;51.336;12.340;2023-04-25T06:03:04;14.50;;;10.63;;
2061;SDS011;11070;51.336;12.340;2023-04-25T06:05:29;15.70;;;10.83;;
2061;SDS011;11070;51.336;12.340;2023-04-25T06:07:55;15.90;;;9.80;;
2061;SDS011;11070;51.336;12.340;2023-04-25T06:10:21;13.37;;;8.97;;
2061;SDS011;11070;51.336;12.340;2023-04-25T06:12:47;13.88;;;9.27;;
2061;SDS011;11070;51.336;12.340;2023-04-25T06:15:13;13.07;;;9.97;;
2061;SDS011;11070;51.336;12.340;2023-04-25T06:17:39;12.17;;;8.80;;
2061;SDS011;11070;51.336;12.340;2023-04-25T06:20:05;12.07;;;8.60;;
2061;SDS011;11070;51.336;12.340;2023-04-25T06:22:31;13.93;;;9.25;;
2061;SDS011;11070;51.336;12.340;2023-04-25T06:24:56;10.67;;;8.50;;
2061;SDS011;11070;51.336;12.340;2023-04-25T06:27:23;13.55;;;8.85;;
2061;SDS011;11070;51.336;12.340;2023-04-25T06:29:49;11.57;;;9.20;;
2061;SDS011;11070;51.336;12.340;2023-04-25T06:32:15;14.23;;;9.10;;
2061;SDS011;11070;51.336;12.340;2023-04-25T06:34:43;18.13;;;9.07;;
2061;SDS011;11070;51.336;12.340;2023-04-25T06:37:08;11.80;;;8.47;;
2061;SDS011;11070;51.336;12.340;2023-04-25T06:39:34;16.67;;;9.03;;
2061;SDS011;11070;51.336;12.340;2023-04-25T06:42:00;14.20;;;8.50;;
2061;SDS011;11070;51.336;12.340;2023-04-25T06:44:26;12.53;;;8.57;;
2061;SDS011;11070;51.336;12.340;2023-04-25T06:46:54;11.02;;;8.38;;
2061;SDS011;11070;51.336;12.340;2023-04-25T06:49:19;13.40;;;8.20;;
2061;SDS011;11070;51.336;12.340;2023-04-25T06:51:48;11.37;;;9.07;;
2061;SDS011;11070;51.336;12.340;2023-04-25T06:54:13;12.07;;;7.28;;
2061;SDS011;11070;51.336;12.340;2023-04-25T06:56:39;15.57;;;8.70;;
2061;SDS011;11070;51.336;12.340;2023-04-25T06:59:05;13.50;;;8.30;;
2061;SDS011;11070;51.336;12.340;2023-04-25T07:01:31;10.60;;;8.03;;
2061;SDS011;11070;51.336;12.340;2023-04-25T07:03:56;13.50;;;9.53;;
2061;SDS011;11070;51.336;12.340;2023-04-25T07:06:22;15.70;;;9.93;;
2061;SDS011;11070;51.336;12.340;2023-04-25T07:08:47;13.57;;;10.53;;
2061;SDS011;11070;51.336;12.340;2023-04-25T07:11:13;15.60;;;10.27;;
2061;SDS011;11070;51.336;12.340;2023-04-25T07:13:39;16.77;;;9.33;;
2061;SDS011;11070;51.336;12.340;2023-04-25T07:16:04;15.87;;;10.23;;
2061;SDS011;11070;51.336;12.340;2023-04-25T07:18:30;12.57;;;9.00;;
2061;SDS011;11070;51.336;12.340;2023-04-25T07:20:56;12.50;;;9.30;;
2061;SDS011;11070;51.336;12.340;2023-04-25T07:23:22;13.70;;;9.40;;
2061;SDS011;11070;51.336;12.340;2023-04-25T07:25:47;15.50;;;9.67;;
2061;SDS011;11070;51.336;12.340;2023-04-25T07:28:13;12.37;;;9.30;;
2061;SDS011;11070;51.336;12.340;2023-04-25T07:30:39;13.40;;;9.50;;
2061;SDS011;11070;51.336;12.340;2023-04-25T07:33:04;14.07;;;10.00;;
2061;SDS011;11070;51.336;12.340;2023-04-25T07:35:30;12.97;;;9.43;;
2061;SDS011;11070;51.336;12.340;2023-04-25T07:37:56;17.03;;;9.23;;
2061;SDS011;11070;51.336;12.340;2023-04-25T07:40:21;11.70;;;9.13;;
2061;SDS011;11070;51.336;12.340;2023-04-25T07:42:47;15.30;;;9.50;;
2061;SDS011;11070;51.336;12.340;2023-04-25T07:45:13;15.93;;;10.80;;
2061;SDS011;11070;51.336;12.340;2023-04-25T07:47:39;20.10;;;9.50;;
2061;SDS011;11070;51.336;12.340;2023-04-25T07:50:04;15.13;;;9.50;;
2061;SDS011;11070;51.336;12.340;2023-04-25T07:52:30;16.42;;;9.80;;
2061;SDS011;11070;51.336;12.340;2023-04-25T07:54:56;14.47;;;9.80;;
2061;SDS011;11070;51.336;12.340;2023-04-25T07:57:23;19.58;;;10.82;;
2061;SDS011;11070;51.336;12.340;2023-04-25T07:59:49;15.23;;;10.23;;
2061;SDS011;11070;51.336;12.340;2023-04-25T08:02:15;13.70;;;9.70;;
2061;SDS011;11070;51.336;12.340;2023-04-25T08:04:40;12.30;;;8.37;;
2061;SDS011;11070;51.336;12.340;2023-04-25T08:07:06;13.23;;;8.60;;
2061;SDS011;11070;51.336;12.340;2023-04-25T08:09:32;14.03;;;8.10;;
2061;SDS011;11070;51.336;12.340;2023-04-25T08:12:01;11.35;;;5.72;;
2061;SDS011;11070;51.336;12.340;2023-04-25T08:14:28;7.93;;;4.40;;
2061;SDS011;11070;51.336;12.340;2023-04-25T08:16:56;4.65;;;4.18;;
2061;SDS011;11070;51.336;12.340;2023-04-25T08:19:21;9.07;;;4.10;;
2061;SDS011;11070;51.336;12.340;2023-04-25T08:21:47;6.90;;;4.20;;
2061;SDS011;11070;51.336;12.340;2023-04-25T08:24:13;6.30;;;3.80;;
2061;SDS011;11070;51.336;12.340;2023-04-25T08:26:38;9.73;;;3.50;;
2061;SDS011;11070;51.336;12.340;2023-04-25T08:29:05;6.40;;;3.78;;
2061;SDS011;11070;51.336;12.340;2023-04-25T08:31:31;7.40;;;4.10;;
2061;SDS011;11070;51.336;12.340;2023-04-25T08:33:57;6.63;;;3.73;;
2061;SDS011;11070;51.336;12.340;2023-04-25T08:36:22;11.37;;;4.00;;
2061;SDS011;11070;51.336;12.340;2023-04-25T08:38:49;7.50;;;3.70;;
2061;SDS011;11070;51.336;12.340;2023-04-25T08:41:14;8.03;;;3.50;;
2061;SDS011;11070;51.336;12.340;2023-04-25T08:43:42;6.88;;;4.00;;
2061;SDS011;11070;51.336;12.340;2023-04-25T08:46:08;13.75;;;4.03;;
2061;SDS011;11070;51.336;12.340;2023-04-25T08:48:36;7.10;;;4.28;;
2061;SDS011;11070;51.336;12.340;2023-04-25T08:51:02;6.27;;;3.63;;
2061;SDS011;11070;51.336;12.340;2023-04-25T08:53:32;7.95;;;4.22;;
2061;SDS011;11070;51.336;12.340;2023-04-25T08:55:59;10.13;;;4.03;;
2061;SDS011;11070;51.336;12.340;2023-04-25T08:58:29;8.45;;;3.70;;
2061;SDS011;11070;51.336;12.340;2023-04-25T09:00:55;5.68;;;3.58;;
2061;SDS011;11070;51.336;12.340;2023-04-25T09:03:21;12.77;;;4.40;;
2061;SDS011;11070;51.336;12.340;2023-04-25T09:05:46;12.17;;;4.10;;
2061;SDS011;11070;51.336;12.340;2023-04-25T09:08:12;8.20;;;3.97;;
2061;SDS011;11070;51.336;12.340;2023-04-25T09:10:38;9.57;;;4.87;;
2061;SDS011;11070;51.336;12.340;2023-04-25T09:15:48;6.30;;;3.65;;
2061;SDS011;11070;51.336;12.340;2023-04-25T09:18:35;7.32;;;4.65;;
2061;SDS011;11070;51.336;12.340;2023-04-25T09:21:08;6.35;;;4.00;;
2061;SDS011;11070;51.336;12.340;2023-04-25T09:23:40;9.98;;;4.70;;
2061;SDS011;11070;51.336;12.340;2023-04-25T09:26:07;7.65;;;4.60;;
2061;SDS011;11070;51.336;12.340;2023-04-25T09:28:34;7.32;;;4.10;;
2061;SDS011;11070;51.336;12.340;2023-04-25T09:31:00;9.52;;;4.30;;
2061;SDS011;11070;51.336;12.340;2023-04-25T09:33:27;12.23;;;4.43;;
2061;SDS011;11070;51.336;12.340;2023-04-25T09:35:56;8.00;;;4.00;;
2061;SDS011;11070;51.336;12.340;2023-04-25T09:38:40;10.82;;;4.90;;
2061;SDS011;11070;51.336;12.340;2023-04-25T09:41:07;7.30;;;4.57;;
2061;SDS011;11070;51.336;12.340;2023-04-25T09:43:34;10.73;;;4.55;;
2061;SDS011;11070;51.336;12.340;2023-04-25T09:46:00;13.30;;;5.53;;
2061;SDS011;11070;51.336;12.340;2023-04-25T09:48:26;12.70;;;6.13;;
2061;SDS011;11070;51.336;12.340;2023-04-25T09:53:36;12.63;;;4.47;;
2061;SDS011;11070;51.336;12.340;2023-04-25T09:56:03;9.48;;;5.00;;
2061;SDS011;11070;51.336;12.340;2023-04-25T09:58:31;10.40;;;5.53;;
2061;SDS011;11070;51.336;12.340;2023-04-25T10:01:01;11.70;;;5.03;;
2061;SDS011;11070;51.336;12.340;2023-04-25T10:03:32;12.90;;;5.45;;
2061;SDS011;11070;51.336;12.340;2023-04-25T10:06:00;8.90;;;5.07;;
2061;SDS011;11070;51.336;12.340;2023-04-25T10:08:31;14.95;;;6.13;;
2061;SDS011;11070;51.336;12.340;2023-04-25T10:10:59;15.60;;;5.50;;
2061;SDS011;11070;51.336;12.340;2023-04-25T10:13:27;11.93;;;6.72;;
2061;SDS011;11070;51.336;12.340;2023-04-25T10:15:55;10.40;;;6.55;;
2061;SDS011;11070;51.336;12.340;2023-04-25T10:18:23;12.52;;;7.57;;
2061;SDS011;11070;51.336;12.340;2023-04-25T10:20:50;13.55;;;7.70;;
2061;SDS011;11070;51.336;12.340;2023-04-25T10:23:16;13.20;;;7.97;;
2061;SDS011;11070;51.336;12.340;2023-04-25T10:25:43;12.18;;;7.55;;
2061;SDS011;11070;51.336;12.340;2023-04-25T10:28:08;14.02;;;7.22;;
2061;SDS011;11070;51.336;12.340;2023-04-25T10:30:34;11.17;;;7.57;;
2061;SDS011;11070;51.336;12.340;2023-04-25T10:33:00;11.40;;;7.33;;
2061;SDS011;11070;51.336;12.340;2023-04-25T10:35:29;17.13;;;8.73;;
2061;SDS011;11070;51.336;12.340;2023-04-25T10:38:05;12.63;;;7.95;;
2061;SDS011;11070;51.336;12.340;2023-04-25T10:40:34;12.35;;;8.45;;
2061;SDS011;11070;51.336;12.340;2023-04-25T10:46:23;10.70;;;7.50;;
2061;SDS011;11070;51.336;12.340;2023-04-25T10:48:55;14.13;;;7.75;;
2061;SDS011;11070;51.336;12.340;2023-04-25T10:51:29;11.02;;;7.35;;
2061;SDS011;11070;51.336;12.340;2023-04-25T10:56:28;18.93;;;8.27;;
2061;SDS011;11070;51.336;12.340;2023-04-25T11:01:43;13.95;;;7.80;;
2061;SDS011;11070;51.336;12.340;2023-04-25T11:06:55;11.85;;;8.73;;
2061;SDS011;11070;51.336;12.340;2023-04-25T11:09:23;12.48;;;7.88;;
2061;SDS011;11070;51.336;12.340;2023-04-25T11:11:53;17.25;;;8.35;;
2061;SDS011;11070;51.336;12.340;2023-04-25T11:14:20;16.05;;;8.20;;
2061;SDS011;11070;51.336;12.340;2023-04-25T11:16:46;14.63;;;7.90;;
2061;SDS011;11070;51.336;12.340;2023-04-25T11:19:12;12.97;;;8.13;;
2061;SDS011;11070;51.336;12.340;2023-04-25T11:21:38;11.30;;;7.17;;
2061;SDS011;11070;51.336;12.340;2023-04-25T11:24:03;13.50;;;6.80;;
2061;SDS011;11070;51.336;12.340;2023-04-25T11:26:31;9.50;;;6.32;;
2061;SDS011;11070;51.336;12.340;2023-04-25T11:28:57;13.70;;;7.73;;
2061;SDS011;11070;51.336;12.340;2023-04-25T11:31:25;14.15;;;7.50;;
2061;SDS011;11070;51.336;12.340;2023-04-25T11:33:50;11.43;;;6.17;;
2061;SDS011;11070;51.336;12.340;2023-04-25T11:36:19;10.65;;;6.10;;
2061;SDS011;11070;51.336;12.340;2023-04-25T11:38:44;13.43;;;5.90;;
2061;SDS011;11070;51.336;12.340;2023-04-25T11:41:10;11.47;;;5.63;;
2061;SDS011;11070;51.336;12.340;2023-04-25T11:43:36;10.50;;;5.50;;
2061;SDS011;11070;51.336;12.340;2023-04-25T11:46:06;13.27;;;6.07;;
2061;SDS011;11070;51.336;12.340;2023-04-25T11:48:39;16.92;;;11.00;;
2061;SDS011;11070;51.336;12.340;2023-04-25T11:51:05;10.48;;;6.05;;
2061;SDS011;11070;51.336;12.340;2023-04-25T11:53:31;10.75;;;4.70;;
2061;SDS011;11070;51.336;12.340;2023-04-25T11:55:57;9.97;;;4.80;;
2061;SDS011;11070;51.336;12.340;2023-04-25T11:58:23;12.73;;;4.90;;
2061;SDS011;11070;51.336;12.340;2023-04-25T12:00:49;6.30;;;4.63;;
2061;SDS011;11070;51.336;12.340;2023-04-25T12:03:15;12.40;;;5.60;;
2061;SDS011;11070;51.336;12.340;2023-04-25T12:05:40;8.10;;;4.30;;
2061;SDS011;11070;51.336;12.340;2023-04-25T12:08:12;5.60;;;4.00;;
2061;SDS011;11070;51.336;12.340;2023-04-25T12:10:39;11.57;;;5.30;;
2061;SDS011;11070;51.336;12.340;2023-04-25T12:13:25;23.00;;;11.63;;
2061;SDS011;11070;51.336;12.340;2023-04-25T12:15:53;9.45;;;5.03;;
2061;SDS011;11070;51.336;12.340;2023-04-25T12:18:20;7.78;;;4.00;;
2061;SDS011;11070;51.336;12.340;2023-04-25T12:20:48;6.88;;;4.38;;
2061;SDS011;11070;51.336;12.340;2023-04-25T12:23:14;11.30;;;5.10;;
2061;SDS011;11070;51.336;12.340;2023-04-25T12:25:40;7.60;;;3.93;;
2061;SDS011;11070;51.336;12.340;2023-04-25T12:28:21;8.43;;;4.18;;
2061;SDS011;11070;51.336;12.340;2023-04-25T12:31:06;8.13;;;4.10;;
2061;SDS011;11070;51.336;12.340;2023-04-25T12:33:36;11.52;;;4.25;;
2061;SDS011;11070;51.336;12.340;2023-04-25T12:36:03;6.70;;;4.13;;
2061;SDS011;11070;51.336;12.340;2023-04-25T12:38:35;6.65;;;4.20;;
2061;SDS011;11070;51.336;12.340;2023-04-25T12:41:05;12.25;;;4.97;;
2061;SDS011;11070;51.336;12.340;2023-04-25T12:43:31;9.60;;;4.40;;
2061;SDS011;11070;51.336;12.340;2023-04-25T12:45:57;8.57;;;4.80;;
2061;SDS011;11070;51.336;12.340;2023-04-25T12:48:22;8.43;;;3.73;;
2061;SDS011;11070;51.336;12.340;2023-04-25T12:50:49;11.17;;;4.33;;
2061;SDS011;11070;51.336;12.340;2023-04-25T12:53:16;8.50;;;3.30;;
2061;SDS011;11070;51.336;12.340;2023-04-25T12:55:43;10.45;;;4.13;;
2061;SDS011;11070;51.336;12.340;2023-04-25T12:58:11;7.03;;;3.03;;
2061;SDS011;11070;51.336;12.340;2023-04-25T13:06:23;4.75;;;3.00;;
2061;SDS011;11070;51.336;12.340;2023-04-25T13:08:49;5.67;;;3.00;;
2061;SDS011;11070;51.336;12.340;2023-04-25T13:11:15;12.07;;;6.97;;
2061;SDS011;11070;51.336;12.340;2023-04-25T13:13:41;8.87;;;3.37;;
2061;SDS011;11070;51.336;12.340;2023-04-25T13:16:07;9.40;;;3.35;;
2061;SDS011;11070;51.336;12.340;2023-04-25T13:18:33;6.88;;;3.58;;
2061;SDS011;11070;51.336;12.340;2023-04-25T13:20:59;6.00;;;3.63;;
2061;SDS011;11070;51.336;12.340;2023-04-25T13:23:25;7.13;;;3.23;;
2061;SDS011;11070;51.336;12.340;2023-04-25T13:25:52;6.85;;;3.78;;
2061;SDS011;11070;51.336;12.340;2023-04-25T13:28:18;5.20;;;2.97;;
2061;SDS011;11070;51.336;12.340;2023-04-25T13:30:44;4.90;;;3.22;;
2061;SDS011;11070;51.336;12.340;2023-04-25T13:33:10;5.13;;;3.70;;
2061;SDS011;11070;51.336;12.340;2023-04-25T13:35:36;4.90;;;3.23;;
2061;SDS011;11070;51.336;12.340;2023-04-25T13:38:03;2.55;;;2.20;;
2061;SDS011;11070;51.336;12.340;2023-04-25T13:40:29;6.82;;;3.15;;
2061;SDS011;11070;51.336;12.340;2023-04-25T13:42:55;5.27;;;2.73;;
2061;SDS011;11070;51.336;12.340;2023-04-25T13:45:21;5.32;;;2.97;;
2061;SDS011;11070;51.336;12.340;2023-04-25T13:47:47;12.10;;;6.10;;
2061;SDS011;11070;51.336;12.340;2023-04-25T13:50:13;6.83;;;3.13;;
2061;SDS011;11070;51.336;12.340;2023-04-25T13:52:40;5.00;;;2.50;;
2061;SDS011;11070;51.336;12.340;2023-04-25T13:55:06;6.83;;;3.30;;
2061;SDS011;11070;51.336;12.340;2023-04-25T13:57:34;4.47;;;2.90;;
2061;SDS011;11070;51.336;12.340;2023-04-25T14:00:00;11.18;;;3.42;;
2061;SDS011;11070;51.336;12.340;2023-04-25T14:02:34;7.60;;;5.35;;
2061;SDS011;11070;51.336;12.340;2023-04-25T14:05:00;5.70;;;3.42;;
2061;SDS011;11070;51.336;12.340;2023-04-25T14:07:27;8.38;;;3.33;;
2061;SDS011;11070;51.336;12.340;2023-04-25T14:09:52;9.60;;;4.23;;
2061;SDS011;11070;51.336;12.340;2023-04-25T14:12:18;7.67;;;2.67;;
2061;SDS011;11070;51.336;12.340;2023-04-25T14:14:44;10.10;;;3.33;;
2061;SDS011;11070;51.336;12.340;2023-04-25T14:17:09;4.07;;;2.77;;
2061;SDS011;11070;51.336;12.340;2023-04-25T14:19:35;3.20;;;2.60;;
2061;SDS011;11070;51.336;12.340;2023-04-25T14:22:03;6.47;;;2.70;;
2061;SDS011;11070;51.336;12.340;2023-04-25T14:24:29;3.63;;;3.07;;
2061;SDS011;11070;51.336;12.340;2023-04-25T14:26:54;6.23;;;2.87;;
2061;SDS011;11070;51.336;12.340;2023-04-25T14:29:21;3.95;;;2.95;;
2061;SDS011;11070;51.336;12.340;2023-04-25T14:31:47;7.90;;;4.90;;
2061;SDS011;11070;51.336;12.340;2023-04-25T14:34:12;6.67;;;3.40;;
2061;SDS011;11070;51.336;12.340;2023-04-25T14:36:38;4.10;;;3.60;;
2061;SDS011;11070;51.336;12.340;2023-04-25T14:39:04;6.47;;;3.50;;
2061;SDS011;11070;51.336;12.340;2023-04-25T14:41:33;5.43;;;2.95;;
2061;SDS011;11070;51.336;12.340;2023-04-25T14:43:59;6.20;;;3.60;;
2061;SDS011;11070;51.336;12.340;2023-04-25T14:46:24;4.23;;;2.70;;
2061;SDS011;11070;51.336;12.340;2023-04-25T14:48:50;5.40;;;3.92;;
2061;SDS011;11070;51.336;12.340;2023-04-25T14:51:16;4.93;;;2.93;;
2061;SDS011;11070;51.336;12.340;2023-04-25T14:53:42;7.20;;;4.90;;
2061;SDS011;11070;51.336;12.340;2023-04-25T14:56:07;4.67;;;2.83;;